Ludlam, Florida
Current Conditions -  °F | °C
As of 7:53 PM on Sunday 23 Nov 2014 (Local Time) from KMIA Reporting Station
Broken Clouds Broken Clouds  
Wind Chill: 79°   Ceiling: 15000
Heat Index: 82°   Visibility: 10mi
Dew Point: 74°   Wind: 8mph
Humidity: 84%   Direction: 140°SE
Pressure: 29.96"   Gusts: NA
Location:  25.7539°N, 80.2512°W
Report Text: KMIA 240053Z 14007KT 10SM FEW033 BKN150 26/23 A2996 RMK AO2 SLP146 T02610233
Loading
Personal Weather Stations






























Interactive Weather Map New forecast layout! Learn more

10-Day Weather Forecast

Advertisements
Track Severe Weather on mobile